Time;durP1;ratioP1;P1;durP2;ratioP2;P2;SDS_P1;SDS_P2;PMS_P1;PMS_P2;Temp;Humidity;BMP_temperature;BMP_pressure;BME280_temperature;BME280_humidity;BME280_pressure;Samples;Min_cycle;Max_cycle;Signal;HPM_P1;HPM_P2
2022/09/28 00:01:17;;;;;;;18.75;10.52;;;;;;;7.92;100.00;99481.59;5066300;28;20755;-70
2022/09/28 00:03:44;;;;;;;21.48;10.25;;;;;;;7.93;100.00;99479.78;5066400;28;20052;-71
2022/09/28 00:06:12;;;;;;;19.42;10.00;;;;;;;7.99;100.00;99474.88;5039098;28;20039;-71
2022/09/28 00:08:38;;;;;;;22.52;10.95;;;;;;;8.12;100.00;99476.59;5063484;28;20564;-69
2022/09/28 00:11:05;;;;;;;18.33;10.73;;;;;;;8.23;100.00;99472.22;5060572;28;20043;-71
2022/09/28 00:13:32;;;;;;;17.52;10.40;;;;;;;8.17;100.00;99477.97;5062370;28;20047;-70
2022/09/28 00:16:10;;;;;;;20.20;11.25;;;;;;;8.16;100.00;99475.44;5064792;28;20042;-70
2022/09/28 00:18:35;;;;;;;22.50;12.00;;;;;;;8.20;100.00;99471.59;5058807;28;20036;-71
2022/09/28 00:21:08;;;;;;;23.40;12.63;;;;;;;8.21;100.00;99468.81;5056706;28;20036;-69
2022/09/28 00:23:33;;;;;;;;;;;;;;;8.20;100.00;99464.47;5059608;28;20041;-72
2022/09/28 00:26:04;;;;;;;25.63;13.27;;;;;;;8.20;100.00;99464.47;5060898;28;19970;-69
2022/09/28 00:28:30;;;;;;;24.25;13.43;;;;;;;8.17;100.00;99467.34;5062655;28;20032;-71
2022/09/28 00:30:57;;;;;;;24.23;13.68;;;;;;;8.21;100.00;99460.00;5066478;28;20063;-70
2022/09/28 00:33:23;;;;;;;26.17;12.52;;;;;;;8.15;100.00;99465.78;5066327;28;20070;-71
2022/09/28 00:35:58;;;;;;;24.90;13.40;;;;;;;8.19;100.00;99459.28;5063645;28;20028;-70
2022/09/28 00:38:29;;;;;;;24.23;13.48;;;;;;;8.09;100.00;99464.44;5066976;28;20044;-68
2022/09/28 00:40:54;;;;;;;29.02;13.60;;;;;;;8.04;100.00;99462.13;5068009;28;20059;-69
2022/09/28 00:43:21;;;;;;;25.23;12.85;;;;;;;8.05;100.00;99457.66;5060196;28;20036;-71
2022/09/28 00:45:55;;;;;;;22.75;13.43;;;;;;;8.00;100.00;99454.50;5064665;28;20044;-71
2022/09/28 00:48:21;;;;;;;27.13;13.55;;;;;;;8.01;100.00;99464.16;5064047;28;20036;-70
2022/09/28 00:50:48;;;;;;;23.95;12.82;;;;;;;7.99;100.00;99458.13;5066851;28;20037;-69
2022/09/28 00:53:18;;;;;;;25.58;13.05;;;;;;;8.03;100.00;99457.78;5060498;28;20032;-70
2022/09/28 00:55:48;;;;;;;27.33;14.93;;;;;;;8.09;100.00;99447.66;5056539;28;20049;-70
2022/09/28 00:58:20;;;;;;;25.02;14.68;;;;;;;8.00;100.00;99446.53;5037724;28;20032;-68
2022/09/28 01:00:47;;;;;;;26.25;13.30;;;;;;;8.06;100.00;99448.72;5061620;28;20093;-72
2022/09/28 01:03:13;;;;;;;25.00;13.57;;;;;;;8.02;100.00;99452.56;5066161;28;20129;-69
2022/09/28 01:05:39;;;;;;;25.60;14.25;;;;;;;8.14;100.00;99453.47;5025902;28;20096;-70
2022/09/28 01:08:06;;;;;;;24.52;12.77;;;;;;;8.11;100.00;99462.50;5059522;28;20121;-69
2022/09/28 01:10:32;;;;;;;28.20;13.88;;;;;;;8.10;100.00;99449.34;5046551;28;20043;-71
2022/09/28 01:12:58;;;;;;;24.35;12.65;;;;;;;8.02;100.00;99450.75;5066287;28;20726;-70
2022/09/28 01:15:26;;;;;;;24.25;12.50;;;;;;;8.02;100.00;99452.56;5064438;28;20035;-71
2022/09/28 01:17:52;;;;;;;25.80;11.73;;;;;;;8.06;100.00;99451.38;5060567;28;20474;-70
2022/09/28 01:20:36;;;;;;;22.25;13.55;;;;;;;8.14;100.00;99456.13;5044434;28;20050;-70
2022/09/28 01:23:43;;;;;;;24.02;13.20;;;;;;;8.05;100.00;99453.19;5040215;28;20112;-70
2022/09/28 01:26:42;;;;;;;26.77;13.43;;;;;;;8.07;100.00;99457.53;5048249;28;20075;-69
2022/09/28 01:29:28;;;;;;;24.85;13.52;;;;;;;8.11;100.00;99456.34;5041710;28;20135;-72
2022/09/28 01:32:15;;;;;;;34.80;15.57;;;;;;;8.17;100.00;99446.09;5057905;28;20486;-71
2022/09/28 01:35:05;;;;;;;27.15;14.02;;;;;;;8.19;100.00;99440.69;5045732;28;20032;-71
2022/09/28 01:37:40;;;;;;;31.08;15.05;;;;;;;8.20;100.00;99448.53;5041484;28;20132;-70
2022/09/28 01:40:09;;;;;;;34.47;15.10;;;;;;;8.15;100.00;99447.19;5045624;28;20099;-70
2022/09/28 01:42:38;;;;;;;31.48;16.35;;;;;;;8.21;100.00;99450.22;5062065;28;20040;-70
2022/09/28 01:45:10;;;;;;;26.08;15.40;;;;;;;8.23;100.00;99443.00;5040851;28;20067;-71
2022/09/28 01:47:38;;;;;;;31.77;16.15;;;;;;;8.24;100.00;99449.16;5064252;28;20412;-70
2022/09/28 01:50:09;;;;;;;35.28;16.48;;;;;;;8.28;100.00;99453.25;5045898;28;20033;-68
2022/09/28 01:52:43;;;;;;;28.95;15.50;;;;;;;8.23;100.00;99447.44;5056981;28;20037;-69
2022/09/28 01:55:27;;;;;;;28.92;15.88;;;;;;;8.23;100.00;99456.28;5040248;28;20768;-70
2022/09/28 01:57:59;;;;;;;32.75;15.65;;;;;;;8.29;100.00;99450.50;5046156;28;20036;-71
2022/09/28 02:00:26;;;;;;;31.40;16.40;;;;;;;8.26;100.00;99455.19;5065022;28;20128;-69
2022/09/28 02:03:15;;;;;;;29.60;15.82;;;;;;;8.23;100.00;99450.97;5029982;28;20036;-70
2022/09/28 02:05:50;;;;;;;28.88;16.15;;;;;;;8.18;100.00;99452.25;5035349;28;20433;-68
2022/09/28 02:08:28;;;;;;;31.17;14.23;;;;;;;8.22;100.00;99453.72;5047830;28;20029;-71
2022/09/28 02:11:06;;;;;;;33.58;17.25;;;;;;;8.18;100.00;99442.50;5042628;28;20071;-69
2022/09/28 02:13:39;;;;;;;27.92;13.82;;;;;;;8.19;100.00;99446.00;5040886;28;20033;-71
2022/09/28 02:16:34;;;;;;;25.92;14.57;;;;;;;8.15;100.00;99448.03;5063766;28;20036;-69
2022/09/28 02:19:00;;;;;;;27.55;15.52;;;;;;;8.07;100.00;99438.94;5039825;28;20101;-72
2022/09/28 02:21:57;;;;;;;31.42;14.15;;;;;;;8.02;100.00;99436.63;5064251;28;20036;-71
2022/09/28 02:24:31;;;;;;;31.08;14.38;;;;;;;7.94;100.00;99447.84;5057776;28;20072;-70
2022/09/28 02:27:02;;;;;;;24.52;14.32;;;;;;;7.97;100.00;99449.41;5042321;28;20032;-71
2022/09/28 02:29:31;;;;;;;26.98;15.32;;;;;;;7.97;100.00;99444.94;5036753;28;20032;-68
2022/09/28 02:31:57;;;;;;;29.42;15.65;;;;;;;7.93;100.00;99439.97;5046141;28;20040;-71
2022/09/28 02:34:22;;;;;;;28.52;15.00;;;;;;;7.92;100.00;99436.47;5045987;28;20044;-70
2022/09/28 02:36:48;;;;;;;31.20;15.63;;;;;;;7.96;100.00;99435.28;5042102;28;20033;-69
2022/09/28 02:39:16;;;;;;;33.88;16.45;;;;;;;7.92;100.00;99435.63;5031774;28;20060;-68
2022/09/28 02:41:59;;;;;;;31.35;15.85;;;;;;;7.94;100.00;99433.72;5063252;28;20101;-70
2022/09/28 02:44:49;;;;;;;25.98;14.98;;;;;;;7.94;100.00;99437.22;5058263;28;20056;-69
2022/09/28 02:47:34;;;;;;;29.67;15.38;;;;;;;7.93;100.00;99437.31;5060802;28;20143;-71
2022/09/28 02:50:28;;;;;;;28.63;14.65;;;;;;;7.97;100.00;99442.28;5039342;28;20036;-70
2022/09/28 02:53:12;;;;;;;31.38;17.73;;;;;;;7.96;100.00;99437.09;5040455;28;20032;-71
2022/09/28 02:56:03;;;;;;;28.05;14.85;;;;;;;7.97;100.00;99446.75;5037857;28;20036;-71
2022/09/28 02:58:44;;;;;;;29.00;15.48;;;;;;;8.09;100.00;99437.88;5057131;28;20029;-70
2022/09/28 03:01:18;;;;;;;30.80;16.10;;;;;;;8.07;100.00;99439.78;5027104;28;20561;-69
2022/09/28 03:03:49;;;;;;;30.35;16.35;;;;;;;8.14;100.00;99445.50;5034921;28;20447;-72
2022/09/28 03:06:24;;;;;;;28.58;15.15;;;;;;;8.14;100.00;99453.47;5043879;28;20186;-70
2022/09/28 03:09:16;;;;;;;37.75;17.90;;;;;;;8.17;100.00;99447.91;5046668;28;20093;-70
2022/09/28 03:11:48;;;;;;;30.15;16.88;;;;;;;8.14;100.00;99451.66;5048858;28;20159;-71
2022/09/28 03:14:14;;;;;;;34.03;16.23;;;;;;;8.15;100.00;99448.03;5047318;28;20037;-69
2022/09/28 03:16:47;;;;;;;27.33;15.38;;;;;;;8.15;100.00;99458.66;5047983;28;20127;-71
2022/09/28 03:19:14;;;;;;;31.27;16.52;;;;;;;8.16;100.00;99446.22;5068546;28;20109;-69
2022/09/28 03:21:40;;;;;;;25.05;14.68;;;;;;;8.10;100.00;99449.34;5046161;28;20045;-70
2022/09/28 03:24:09;;;;;;;28.67;15.13;;;;;;;8.10;100.00;99450.19;5049901;28;20055;-69
2022/09/28 03:26:37;;;;;;;28.95;14.90;;;;;;;8.14;100.00;99450.81;5033860;28;20040;-71
2022/09/28 03:29:02;;;;;;;33.22;15.00;;;;;;;8.12;100.00;99452.72;5033704;28;20036;-71
2022/09/28 03:31:28;;;;;;;25.67;14.38;;;;;;;8.16;100.00;99452.38;5042190;28;20040;-71
2022/09/28 03:33:54;;;;;;;23.67;14.80;;;;;;;8.23;100.00;99461.59;5038754;28;20482;-68
2022/09/28 03:36:20;;;;;;;24.15;13.52;;;;;;;8.19;100.00;99457.47;5045348;28;20037;-70
2022/09/28 03:38:45;;;;;;;28.17;14.98;;;;;;;8.18;100.00;99462.88;5049254;28;20048;-71
2022/09/28 03:41:11;;;;;;;23.27;13.60;;;;;;;8.12;100.00;99463.34;5049672;28;20037;-68
2022/09/28 03:43:40;;;;;;;23.60;14.07;;;;;;;8.13;100.00;99454.41;5046510;28;20041;-69
2022/09/28 03:46:05;;;;;;;28.40;14.52;;;;;;;8.07;100.00;99461.03;5049698;28;20403;-71
2022/09/28 03:48:36;;;;;;;22.98;14.68;;;;;;;8.09;100.00;99453.81;5044445;28;20056;-70
2022/09/28 03:51:08;;;;;;;28.88;13.90;;;;;;;8.10;100.00;99455.50;5059026;28;20040;-69
2022/09/28 03:53:34;;;;;;;26.02;14.88;;;;;;;8.03;100.00;99449.81;5047838;28;20104;-69
2022/09/28 03:56:05;;;;;;;26.00;14.50;;;;;;;8.18;100.00;99462.88;5047072;28;20385;-70
2022/09/28 03:58:31;;;;;;;29.48;15.73;;;;;;;8.15;100.00;99453.34;5038735;28;20052;-68
2022/09/28 04:01:03;;;;;;;23.48;13.57;;;;;;;8.18;100.00;99452.25;5048013;28;20059;-71
2022/09/28 04:03:28;;;;;;;25.60;14.98;;;;;;;8.09;100.00;99460.94;5065174;28;20040;-70
2022/09/28 04:05:53;;;;;;;24.45;14.00;;;;;;;8.10;100.00;99450.19;5045997;28;20032;-71
2022/09/28 04:08:19;;;;;;;26.35;14.40;;;;;;;8.08;100.00;99454.75;5046054;28;20443;-71
2022/09/28 04:10:45;;;;;;;26.33;13.88;;;;;;;8.11;100.00;99462.50;5038075;28;20040;-71
2022/09/28 04:13:10;;;;;;;24.67;14.20;;;;;;;8.09;100.00;99448.50;5041322;28;20036;-70
2022/09/28 04:15:37;;;;;;;26.95;15.57;;;;;;;7.97;100.00;99450.25;5025877;28;20048;-69
2022/09/28 04:18:11;;;;;;;26.23;15.40;;;;;;;7.86;100.00;99452.88;5043029;28;20136;-70
2022/09/28 04:21:05;;;;;;;27.60;13.10;;;;;;;7.83;100.00;99446.94;5046227;28;20083;-71
2022/09/28 04:23:35;;;;;;;25.75;14.38;;;;;;;7.86;100.00;99446.72;5043005;28;20040;-71
2022/09/28 04:26:05;;;;;;;27.55;14.07;;;;;;;7.87;100.00;99449.25;5043669;28;20037;-71
2022/09/28 04:31:18;;;;;;;29.83;13.77;;;;;;;7.75;100.00;99448.34;5044965;28;20051;-71
2022/09/28 04:33:43;;;;;;;24.90;13.15;;;;;;;7.77;100.00;99448.25;5060086;28;20039;-70
2022/09/28 04:36:09;;;;;;;24.65;13.85;;;;;;;7.75;100.00;99443.06;5056702;28;20068;-70
2022/09/28 04:38:36;;;;;;;26.40;14.13;;;;;;;7.82;100.00;99445.25;5042407;28;20033;-71
2022/09/28 04:41:02;;;;;;;24.95;14.00;;;;;;;7.83;100.00;99453.13;5059606;28;20032;-70
2022/09/28 04:43:28;;;;;;;25.95;13.98;;;;;;;7.84;100.00;99449.50;5042539;28;20043;-67
2022/09/28 04:46:01;;;;;;;27.25;14.85;;;;;;;7.74;100.00;99453.78;5043005;28;20093;-69
2022/09/28 04:48:32;;;;;;;30.23;13.32;;;;;;;7.81;100.00;99447.06;5032279;28;20135;-71
2022/09/28 04:51:09;;;;;;;26.83;13.93;;;;;;;7.80;100.00;99450.69;5058112;28;20119;-71
2022/09/28 04:53:35;;;;;;;29.02;14.35;;;;;;;7.65;100.00;99450.00;5039145;28;20726;-71
2022/09/28 04:56:03;;;;;;;28.08;14.43;;;;;;;7.69;100.00;99448.81;5043305;28;20032;-71
2022/09/28 04:58:30;;;;;;;26.17;14.07;;;;;;;7.71;100.00;99444.25;5041288;28;20078;-70
2022/09/28 05:01:00;;;;;;;24.27;13.40;;;;;;;7.74;100.00;99453.78;5042330;28;20189;-71
2022/09/28 05:03:49;;;;;;;25.20;14.35;;;;;;;7.65;100.00;99457.13;4949602;28;1047619;-70
2022/09/28 05:06:30;;;;;;;26.35;13.60;;;;;;;7.61;100.00;99450.34;4980855;28;20050;-69
2022/09/28 05:09:03;;;;;;;24.33;13.50;;;;;;;7.50;100.00;99446.66;4967756;28;20054;-71
2022/09/28 05:11:28;;;;;;;30.90;13.63;;;;;;;7.51;100.00;99447.50;4974523;28;20044;-70
2022/09/28 05:13:54;;;;;;;30.00;13.70;;;;;;;7.45;100.00;99448.81;4970603;28;20069;-70
2022/09/28 05:16:20;;;;;;;27.27;13.73;;;;;;;7.36;100.00;99445.97;4968756;28;20038;-70
2022/09/28 05:19:05;;;;;;;23.17;13.27;;;;;;;7.21;100.00;99450.56;4986404;28;20158;-71
2022/09/28 05:21:31;;;;;;;23.38;13.52;;;;;;;7.14;100.00;99450.19;4970475;28;20050;-71
2022/09/28 05:23:57;;;;;;;29.35;13.88;;;;;;;7.04;100.00;99461.56;4984791;28;20124;-70
2022/09/28 05:26:23;;;;;;;28.35;14.90;;;;;;;7.03;100.00;99455.41;4966335;28;20261;-70
2022/09/28 05:28:49;;;;;;;22.98;12.77;;;;;;;6.99;100.00;99465.38;4969737;28;20061;-71
2022/09/28 05:31:34;;;;;;;21.55;12.15;;;;;;;6.97;100.00;99469.91;4979368;28;20274;-71
2022/09/28 05:34:05;;;;;;;22.55;13.25;;;;;;;6.96;100.00;99460.28;4986603;28;20268;-71
2022/09/28 05:36:31;;;;;;;20.00;12.25;;;;;;;6.94;100.00;99464.84;4982753;28;20035;-71
2022/09/28 05:38:57;;;;;;;24.85;14.20;;;;;;;6.96;100.00;99462.94;4983893;28;20878;-70
2022/09/28 05:41:23;;;;;;;36.00;18.70;;;;;;;7.02;100.00;99459.00;5017083;28;20041;-69
2022/09/28 05:43:50;;;;;;;36.92;18.88;;;;;;;7.08;100.00;99463.00;5059434;28;20048;-70
2022/09/28 05:46:17;;;;;;;31.17;16.65;;;;;;;7.20;100.00;99460.34;5038552;28;20048;-71
2022/09/28 05:48:42;;;;;;;32.05;14.25;;;;;;;7.19;100.00;99466.59;5060925;28;20759;-70
2022/09/28 05:51:09;;;;;;;25.10;13.65;;;;;;;7.24;100.00;99460.97;5060970;28;20036;-71
2022/09/28 05:53:34;;;;;;;24.30;12.93;;;;;;;7.29;100.00;99461.50;5041422;28;20120;-71
2022/09/28 05:56:00;;;;;;;26.35;14.05;;;;;;;7.31;100.00;99472.81;5041382;28;20032;-71
2022/09/28 05:58:28;;;;;;;19.77;11.57;;;;;;;7.35;100.00;99469.00;5039113;28;20035;-68
2022/09/28 06:00:55;;;;;;;24.73;13.27;;;;;;;7.49;100.00;99470.66;5036086;28;20036;-69
2022/09/28 06:03:21;;;;;;;22.15;12.57;;;;;;;7.46;100.00;99477.00;5027906;28;20072;-69
2022/09/28 06:05:46;;;;;;;25.73;14.20;;;;;;;7.41;100.00;99479.16;5036022;28;20047;-70
2022/09/28 06:08:12;;;;;;;27.00;13.55;;;;;;;7.40;100.00;99469.50;5022502;28;20043;-71
2022/09/28 06:10:42;;;;;;;20.60;13.00;;;;;;;7.34;100.00;99483.22;5019692;28;20821;-70
2022/09/28 06:13:09;;;;;;;23.83;13.20;;;;;;;7.43;100.00;99489.66;5040151;28;20032;-68
2022/09/28 06:15:35;;;;;;;24.35;12.45;;;;;;;7.31;100.00;99488.72;5052322;28;20040;-68
2022/09/28 06:18:03;;;;;;;23.02;12.75;;;;;;;7.36;100.00;99494.56;5041117;28;20122;-71
2022/09/28 06:20:40;;;;;;;19.63;12.15;;;;;;;7.40;100.00;99497.84;5040062;28;20113;-70
2022/09/28 06:23:09;;;;;;;28.33;12.15;;;;;;;7.34;100.00;99499.13;5057058;28;20040;-69
2022/09/28 06:25:35;;;;;;;19.85;11.35;;;;;;;7.42;100.00;99506.53;5035981;28;20119;-68
2022/09/28 06:28:03;;;;;;;21.60;12.13;;;;;;;7.61;100.00;99498.94;5033824;28;20056;-71
2022/09/28 06:30:30;;;;;;;22.73;11.85;;;;;;;7.74;100.00;99496.25;5033911;28;20025;-70
2022/09/28 06:32:58;;;;;;;21.63;12.07;;;;;;;7.92;100.00;99502.00;5040136;28;20043;-71
2022/09/28 06:35:26;;;;;;;17.55;11.13;;;;;;;8.07;100.00;99500.00;5040455;28;20096;-71
2022/09/28 06:37:52;;;;;;;19.38;11.48;;;;;;;8.25;100.00;99502.13;5040518;28;20048;-71
2022/09/28 06:40:19;;;;;;;22.77;11.18;;;;;;;8.18;100.00;99513.31;5040642;28;20797;-71
2022/09/28 06:42:59;;;;;;;17.42;10.52;;;;;;;8.64;100.00;99517.84;5038390;28;20036;-71
2022/09/28 06:45:50;;;;;;;17.50;10.80;;;;;;;8.91;100.00;99512.22;5058529;28;21044;-72
2022/09/28 06:48:30;;;;;;;15.70;9.95;;;;;;;9.39;100.00;99511.94;5041333;28;20472;-71
2022/09/28 06:50:56;;;;;;;19.45;9.95;;;;;;;9.26;100.00;99520.09;5059119;28;20456;-71
2022/09/28 06:53:31;;;;;;;14.18;7.72;;;;;;;9.39;100.00;99517.28;5040312;28;20476;-72
2022/09/28 06:56:09;;;;;;;9.77;7.63;;;;;;;9.54;100.00;99518.75;5030788;28;20381;-71
2022/09/28 06:58:34;;;;;;;10.52;6.93;;;;;;;9.95;100.00;99520.69;5040144;28;20555;-70
2022/09/28 07:01:01;;;;;;;8.85;6.63;;;;;;;9.64;100.00;99519.69;5038294;28;20032;-70
2022/09/28 07:03:29;;;;;;;11.73;6.05;;;;;;;10.38;100.00;99515.31;5036127;28;20045;-71
2022/09/28 07:06:22;;;;;;;9.43;5.35;;;;;;;10.46;100.00;99514.69;5037290;28;20127;-69
2022/09/28 07:09:11;;;;;;;6.90;5.35;;;;;;;10.88;100.00;99520.00;5006824;28;20078;-70
2022/09/28 07:12:08;;;;;;;9.27;6.00;;;;;;;10.68;100.00;99513.72;5002183;28;20260;-71
2022/09/28 07:14:45;;;;;;;8.00;5.18;;;;;;;10.29;100.00;99516.13;5002714;28;20144;-70
2022/09/28 07:17:10;;;;;;;7.80;4.93;;;;;;;10.99;100.00;99511.91;4992393;28;20422;-69
2022/09/28 07:19:36;;;;;;;7.22;4.30;;;;;;;11.05;100.00;99522.09;4992890;28;20054;-71
2022/09/28 07:22:02;;;;;;;9.57;5.75;;;;;;;11.08;100.00;99521.81;4977084;28;20573;-70
2022/09/28 07:24:29;;;;;;;8.55;5.25;;;;;;;11.28;100.00;99514.72;4989734;28;20415;-69
2022/09/28 07:27:13;;;;;;;5.97;4.00;;;;;;;10.57;100.00;99525.28;5000801;28;20084;-68
2022/09/28 07:29:53;;;;;;;7.93;4.47;;;;;;;11.02;100.00;99526.84;4988880;28;20076;-68
2022/09/28 07:32:33;;;;;;;7.15;4.78;;;;;;;11.04;100.00;99541.72;5006172;28;20132;-70
2022/09/28 07:35:24;;;;;;;6.75;3.75;;;;;;;11.40;100.00;99536.84;5002182;28;20116;-70
2022/09/28 07:38:00;;;;;;;8.82;4.50;;;;;;;10.93;100.00;99540.94;5009185;28;20609;-69
2022/09/28 07:43:12;;;;;;;8.38;4.88;;;;;;;11.34;100.00;99532.88;4986808;28;20133;-71
2022/09/28 07:45:38;;;;;;;8.05;5.05;;;;;;;11.94;100.00;99532.94;5017689;28;20059;-68
2022/09/28 07:48:04;;;;;;;8.30;5.30;;;;;;;11.71;100.00;99540.31;5037624;28;20749;-70
2022/09/28 07:50:55;;;;;;;6.07;4.30;;;;;;;11.76;100.00;99548.75;5038554;28;20047;-69
2022/09/28 07:53:43;;;;;;;8.57;4.80;;;;;;;11.98;100.00;99547.72;5035253;28;20374;-69
2022/09/28 07:56:33;;;;;;;7.88;4.45;;;;;;;12.08;100.00;99547.72;5060543;28;20091;-69
2022/09/28 07:59:18;;;;;;;8.02;4.47;;;;;;;12.09;100.00;99544.91;5056555;28;20055;-71
2022/09/28 08:02:02;;;;;;;8.35;4.50;;;;;;;11.87;100.00;99550.50;5058757;28;20762;-71
2022/09/28 08:04:29;;;;;;;7.82;3.95;;;;;;;11.77;100.00;99557.63;5019962;28;20049;-71
2022/09/28 08:06:54;;;;;;;7.18;3.60;;;;;;;11.73;100.00;99561.53;5060262;28;20597;-72
2022/09/28 08:09:20;;;;;;;8.18;4.13;;;;;;;11.89;100.00;99564.56;5043384;28;20028;-70
2022/09/28 08:12:06;;;;;;;5.75;3.92;;;;;;;11.42;100.00;99566.91;5018397;28;20083;-71
2022/09/28 08:14:39;;;;;;;5.45;3.60;;;;;;;11.29;100.00;99574.28;5040667;28;20048;-70
2022/09/28 08:17:30;;;;;;;4.63;3.17;;;;;;;11.71;100.00;99575.03;5042064;28;20032;-71
2022/09/28 08:22:43;;;;;;;6.50;3.80;;;;;;;11.95;100.00;99576.50;5036587;28;20413;-72
2022/09/28 08:25:09;;;;;;;6.97;3.72;;;;;;;12.01;100.00;99571.50;5035343;28;20083;-72
2022/09/28 08:27:35;;;;;;;5.35;3.65;;;;;;;11.99;100.00;99581.44;5042583;28;20028;-71
2022/09/28 08:30:00;;;;;;;9.32;4.32;;;;;;;11.48;100.00;99585.06;5039911;28;20508;-71
2022/09/28 08:32:55;;;;;;;3.50;2.80;;;;;;;11.45;100.00;99582.66;4983858;28;20045;-70
2022/09/28 08:35:44;;;;;;;2.85;2.55;;;;;;;11.96;100.00;99578.22;4916069;29;20119;-71
2022/09/28 08:38:20;;;;;;;3.20;2.47;;;;;;;12.40;100.00;99579.56;4921272;29;20083;-71
2022/09/28 08:41:34;;;;;;;5.47;2.45;;;;;;;12.43;99.67;99581.94;4921076;29;20051;-71
2022/09/28 08:44:25;;;;;;;2.67;1.67;;;;;;;12.80;98.71;99582.09;4910755;29;20512;-71
2022/09/28 08:48:42;;;;;;;7.28;2.72;;;;;;;12.78;95.77;99589.38;4920808;29;20223;-71
2022/09/28 08:50:20;;;;;;;4.30;2.08;;;;;;;12.86;95.61;99591.38;4918093;29;20048;-72
2022/09/28 08:53:08;;;;;;;3.90;1.98;;;;;;;12.79;93.61;99590.22;4917372;29;20476;-70
2022/09/28 08:55:51;;;;;;;5.10;1.73;;;;;;;12.55;96.89;99596.88;4920441;29;20063;-71
2022/09/28 08:58:24;;;;;;;3.38;1.40;;;;;;;12.88;96.74;99598.25;4919758;29;20505;-70
2022/09/28 09:00:51;;;;;;;3.75;2.03;;;;;;;13.46;97.12;99602.69;4904433;29;20135;-72
2022/09/28 09:03:28;;;;;;;3.90;1.60;;;;;;;13.81;89.73;99595.78;4919209;29;20135;-72
2022/09/28 09:06:19;;;;;;;3.67;2.28;;;;;;;13.28;93.06;99605.25;4917006;29;20047;-72
2022/09/28 09:09:10;;;;;;;;;;;;;;;13.48;92.93;99604.19;4942695;28;20519;-73
2022/09/28 09:11:57;;;;;;;5.95;2.05;;;;;;;13.66;90.65;99606.13;4994570;28;19921;-70
2022/09/28 09:14:50;;;;;;;2.15;1.20;;;;;;;14.14;90.17;99603.19;5038550;28;20079;-70
2022/09/28 09:17:46;;;;;;;4.93;1.20;;;;;;;13.63;90.23;99604.56;5037732;28;20041;-69
2022/09/28 09:20:55;;;;;;;1.30;0.93;;;;;;;13.83;90.21;99604.50;5025572;28;20048;-73
2022/09/28 09:23:55;;;;;;;2.20;1.30;;;;;;;13.54;88.75;99609.97;5042277;28;20040;-68
2022/09/28 09:26:39;;;;;;;4.70;1.23;;;;;;;13.18;92.05;99617.78;5040291;28;20040;-69
2022/09/28 09:29:31;;;;;;;1.83;1.10;;;;;;;13.01;93.00;99610.50;5035600;28;20037;-72
2022/09/28 09:32:40;;;;;;;1.90;1.02;;;;;;;12.60;92.78;99616.03;5035545;28;20036;-71
2022/09/28 09:35:24;;;;;;;2.47;1.02;;;;;;;12.63;93.15;99620.22;5035736;28;20032;-72
2022/09/28 09:38:27;;;;;;;3.30;1.20;;;;;;;12.56;93.91;99627.97;4975503;28;20077;-70
2022/09/28 09:41:21;;;;;;;1.45;1.10;;;;;;;12.53;93.06;99617.53;4978004;28;20046;-72
2022/09/28 09:44:38;;;;;;;2.72;1.10;;;;;;;13.16;92.00;99619.78;4976735;28;20478;-72
2022/09/28 09:47:43;;;;;;;1.70;0.90;;;;;;;14.05;87.54;99622.84;4948343;28;20090;-73
2022/09/28 09:50:29;;;;;;;1.92;1.27;;;;;;;14.18;86.78;99622.50;4955406;28;20034;-72
2022/09/28 09:53:22;;;;;;;2.33;1.30;;;;;;;14.84;85.02;99619.50;4961588;28;20138;-72
2022/09/28 09:55:56;;;;;;;1.20;1.10;;;;;;;14.87;80.53;99616.50;4970433;28;20046;-71
2022/09/28 09:58:49;;;;;;;7.28;1.52;;;;;;;14.68;81.01;99619.34;4972248;28;20139;-67
2022/09/28 10:01:34;;;;;;;2.50;1.08;;;;;;;14.98;82.55;99618.94;4960940;28;20034;-69
2022/09/28 10:04:32;;;;;;;1.30;1.20;;;;;;;15.07;83.19;99614.50;4974553;28;20050;-69
2022/09/28 10:07:05;;;;;;;1.10;0.95;;;;;;;15.14;82.62;99623.59;4960816;28;20084;-71
2022/09/28 10:09:40;;;;;;;4.07;1.10;;;;;;;15.16;81.57;99623.44;4959920;28;20035;-70
2022/09/28 10:12:22;;;;;;;3.80;1.00;;;;;;;15.91;79.53;99615.66;4992260;28;20092;-68
2022/09/28 10:14:48;;;;;;;2.40;1.00;;;;;;;14.99;80.16;99619.78;5031005;28;20041;-69
2022/09/28 10:17:18;;;;;;;4.00;0.80;;;;;;;14.38;81.66;99623.22;5040595;28;20075;-69
2022/09/28 10:20:03;;;;;;;1.95;1.08;;;;;;;14.31;82.23;99617.63;5042401;28;20886;-71
2022/09/28 10:22:43;;;;;;;1.02;0.82;;;;;;;13.99;83.88;99623.44;5028106;28;20499;-72
2022/09/28 10:25:13;;;;;;;2.13;1.20;;;;;;;13.73;81.80;99628.66;5038549;28;20032;-71
2022/09/28 10:27:46;;;;;;;2.53;0.98;;;;;;;13.77;83.04;99619.31;5039664;28;20040;-72
2022/09/28 10:30:17;;;;;;;;;;;;;;;13.71;83.92;99626.13;5047973;28;20064;-71
2022/09/28 10:32:49;;;;;;;3.17;1.10;;;;;;;13.63;85.58;99626.00;5036696;28;19959;-72
2022/09/28 10:35:18;;;;;;;2.53;0.98;;;;;;;13.72;85.31;99616.25;5038360;28;20040;-71
2022/09/28 10:37:55;;;;;;;1.95;0.88;;;;;;;13.76;81.83;99622.16;5037564;28;20067;-69
2022/09/28 10:40:48;;;;;;;1.58;0.95;;;;;;;14.37;80.52;99617.00;5019728;28;20040;-69
2022/09/28 10:43:25;;;;;;;2.03;0.70;;;;;;;14.85;77.18;99615.81;5040192;28;20401;-71
2022/09/28 10:46:12;;;;;;;1.45;0.65;;;;;;;14.37;78.38;99622.38;5039779;28;20647;-70
2022/09/28 10:49:00;;;;;;;2.10;0.70;;;;;;;14.64;76.91;99616.13;5046767;28;20098;-71
2022/09/28 10:51:48;;;;;;;1.08;0.68;;;;;;;14.63;77.42;99616.28;5050034;28;20044;-71
2022/09/28 10:54:24;;;;;;;1.98;0.60;;;;;;;14.52;78.26;99619.22;5039661;28;20555;-70
2022/09/28 10:56:52;;;;;;;0.93;0.90;;;;;;;14.55;78.06;99617.03;5036754;28;20836;-69
2022/09/28 10:59:39;;;;;;;2.88;0.98;;;;;;;14.60;77.36;99619.25;5034701;28;20051;-69
2022/09/28 11:02:31;;;;;;;3.92;0.77;;;;;;;14.66;81.78;99621.34;5055302;28;20079;-68
2022/09/28 11:05:04;;;;;;;0.63;0.50;;;;;;;14.52;79.87;99628.09;5032457;28;20039;-70
2022/09/28 11:07:45;;;;;;;1.58;0.80;;;;;;;14.20;78.96;99629.38;5032671;28;20036;-71
2022/09/28 11:10:20;;;;;;;6.80;1.83;;;;;;;14.35;79.93;99632.41;5030807;28;20148;-68
2022/09/28 11:12:48;;;;;;;6.32;1.42;;;;;;;14.94;77.20;99619.41;5039110;28;20037;-70
2022/09/28 11:15:20;;;;;;;1.35;0.50;;;;;;;15.47;73.77;99635.41;5047700;28;20035;-71
2022/09/28 11:17:47;;;;;;;2.95;1.20;;;;;;;16.12;73.18;99623.34;5033776;28;20106;-70
2022/09/28 11:20:25;;;;;;;0.50;0.50;;;;;;;15.79;71.31;99631.25;5038321;28;20032;-70
2022/09/28 11:22:59;;;;;;;3.22;0.60;;;;;;;15.80;74.03;99625.72;5034903;28;20045;-69
2022/09/28 11:25:30;;;;;;;0.60;0.60;;;;;;;16.01;71.33;99628.00;5023553;28;20037;-70
2022/09/28 11:27:58;;;;;;;1.90;0.73;;;;;;;15.61;71.96;99627.75;5032855;28;20477;-68
2022/09/28 11:30:32;;;;;;;1.58;0.55;;;;;;;15.62;71.03;99627.63;5042993;28;20033;-69
2022/09/28 11:33:20;;;;;;;2.30;1.85;;;;;;;16.01;71.59;99622.63;5055272;28;20088;-72
2022/09/28 11:36:15;;;;;;;1.65;0.60;;;;;;;16.22;70.97;99624.88;5058400;28;20359;-69
2022/09/28 11:39:13;;;;;;;1.00;0.38;;;;;;;16.66;67.60;99618.41;5037608;28;20143;-67
2022/09/28 11:42:03;;;;;;;2.03;0.50;;;;;;;17.07;64.31;99617.47;5042849;28;20056;-69
2022/09/28 11:44:37;;;;;;;0.60;0.40;;;;;;;16.49;68.30;99617.53;5042932;28;20028;-68
2022/09/28 11:47:32;;;;;;;1.42;0.47;;;;;;;16.80;66.39;99617.78;5037600;28;20123;-67
2022/09/28 11:50:36;;;;;;;0.60;0.50;;;;;;;16.67;64.69;99612.88;5039717;28;20032;-68
2022/09/28 11:53:08;;;;;;;0.57;0.40;;;;;;;17.18;67.27;99608.19;5036750;28;20580;-66
2022/09/28 11:55:37;;;;;;;;;;;;;;;16.72;65.57;99613.25;5061497;28;20048;-67
2022/09/28 11:58:11;;;;;;;0.90;0.40;;;;;;;17.18;64.81;99610.88;5061663;28;19927;-69
2022/09/28 12:00:45;;;;;;;1.13;0.32;;;;;;;16.98;65.96;99614.94;5040798;28;20052;-68
2022/09/28 12:03:39;;;;;;;1.63;0.40;;;;;;;16.79;67.48;99616.94;5038300;28;20198;-69
2022/09/28 12:06:11;;;;;;;1.00;0.30;;;;;;;16.88;64.36;99611.56;5026758;28;20049;-69
2022/09/28 12:08:46;;;;;;;0.30;0.30;;;;;;;17.14;67.78;99614.91;5042271;28;20132;-68
2022/09/28 12:11:51;;;;;;;0.40;0.40;;;;;;;16.96;63.55;99617.78;5031567;28;20063;-71